Time;durP1;ratioP1;P1;durP2;ratioP2;P2;SDS_P1;SDS_P2;PMS_P1;PMS_P2;Temp;Humidity;BMP_temperature;BMP_pressure;BME280_temperature;BME280_humidity;BME280_pressure;Samples;Min_cycle;Max_cycle;Signal;HPM_P1;HPM_P2
2022/09/24 00:00:59;;;;;;;1999.90;999.90;;;13.00;99.90;;;;;;5080081;28;20513;-73
2022/09/24 00:03:27;;;;;;;1999.90;999.90;;;13.10;99.90;;;;;;5082173;28;20464;-74
2022/09/24 00:05:53;;;;;;;1999.90;999.90;;;13.10;99.90;;;;;;5090377;28;20456;-73
2022/09/24 00:08:21;;;;;;;1999.90;999.90;;;13.30;99.90;;;;;;5087294;28;20480;-75
2022/09/24 00:10:48;;;;;;;1999.90;999.90;;;13.30;99.90;;;;;;5085464;28;21006;-76
2022/09/24 00:13:17;;;;;;;1999.90;999.90;;;13.20;99.90;;;;;;5079992;28;20476;-74
2022/09/24 00:15:46;;;;;;;1999.90;999.90;;;13.00;99.90;;;;;;5088619;28;20514;-75
2022/09/24 00:18:13;;;;;;;1999.90;999.90;;;12.90;99.90;;;;;;5076368;28;20488;-76
2022/09/24 00:20:40;;;;;;;1999.90;999.90;;;12.80;99.90;;;;;;5075100;28;20453;-71
2022/09/24 00:23:08;;;;;;;1999.90;999.90;;;12.90;99.90;;;;;;5082752;28;20449;-76
2022/09/24 00:28:25;;;;;;;1999.90;999.90;;;12.90;99.90;;;;;;5075986;28;20468;-75
2022/09/24 00:30:52;;;;;;;1999.90;999.90;;;12.70;99.90;;;;;;5078092;28;20464;-75
2022/09/24 00:33:19;;;;;;;1999.90;999.90;;;12.70;99.90;;;;;;5083855;28;20469;-75
2022/09/24 00:35:45;;;;;;;1999.90;999.90;;;12.70;99.90;;;;;;5086984;28;20509;-75
2022/09/24 00:38:12;;;;;;;1999.90;999.90;;;12.80;99.90;;;;;;5080630;28;20488;-75
2022/09/24 00:40:39;;;;;;;1999.90;999.90;;;12.80;99.90;;;;;;5076854;28;20861;-76
2022/09/24 00:43:23;;;;;;;1999.90;999.90;;;12.70;99.90;;;;;;5078157;28;20472;-75
2022/09/24 00:45:51;;;;;;;1999.90;999.90;;;12.80;99.90;;;;;;5088261;28;20458;-75
2022/09/24 00:48:19;;;;;;;1999.90;999.90;;;12.80;99.90;;;;;;5073397;28;20492;-75
2022/09/24 00:50:46;;;;;;;1999.90;999.90;;;12.80;99.90;;;;;;5073563;28;20465;-75
2022/09/24 00:53:16;;;;;;;1999.90;999.90;;;12.80;99.90;;;;;;5077038;28;21006;-75
2022/09/24 00:55:45;;;;;;;1999.90;999.90;;;12.70;99.90;;;;;;5086966;28;20456;-72
2022/09/24 00:58:13;;;;;;;1999.90;999.90;;;12.70;99.90;;;;;;5080727;28;21264;-75
2022/09/24 01:00:43;;;;;;;1999.90;999.90;;;12.80;99.90;;;;;;5077059;28;21163;-75
2022/09/24 01:03:14;;;;;;;1999.90;999.90;;;12.90;99.90;;;;;;5079009;28;20460;-75
2022/09/24 01:05:41;;;;;;;1999.90;999.90;;;12.90;99.90;;;;;;5089703;28;20452;-77
2022/09/24 01:08:10;;;;;;;1999.90;999.90;;;12.90;99.90;;;;;;5077181;28;20473;-74
2022/09/24 01:10:51;;;;;;;1999.90;999.90;;;12.90;99.90;;;;;;5078831;28;20878;-74
2022/09/24 01:13:41;;;;;;;1999.90;999.90;;;12.70;99.90;;;;;;5078983;28;20889;-76
2022/09/24 01:16:15;;;;;;;1999.90;999.90;;;12.50;99.90;;;;;;5088577;28;20464;-75
2022/09/24 01:18:46;;;;;;;1999.90;999.90;;;12.50;99.90;;;;;;5074888;28;20542;-73
2022/09/24 01:21:34;;;;;;;1999.90;999.90;;;12.50;99.90;;;;;;5075818;28;20501;-75
2022/09/24 01:24:31;;;;;;;1999.90;999.90;;;12.60;99.90;;;;;;5087354;28;20514;-73
2022/09/24 01:27:03;;;;;;;1999.90;999.90;;;12.60;99.90;;;;;;5085433;28;20457;-74
2022/09/24 01:29:40;;;;;;;1999.90;999.90;;;12.70;99.90;;;;;;5085775;28;20464;-75
2022/09/24 01:32:11;;;;;;;1999.90;999.90;;;12.70;99.90;;;;;;5086056;28;20464;-72
2022/09/24 01:34:41;;;;;;;1999.90;999.90;;;12.70;99.90;;;;;;5093487;28;20460;-74
2022/09/24 01:37:08;;;;;;;1999.90;999.90;;;12.70;99.90;;;;;;5090866;28;20509;-76
2022/09/24 01:39:37;;;;;;;1999.90;999.90;;;12.70;99.90;;;;;;5090845;28;20987;-74
2022/09/24 01:42:05;;;;;;;1999.90;999.90;;;12.60;99.90;;;;;;5090954;28;20500;-73
2022/09/24 01:44:36;;;;;;;1999.90;999.90;;;12.60;99.90;;;;;;5086514;28;20530;-74
2022/09/24 01:47:06;;;;;;;1999.90;999.90;;;12.70;99.90;;;;;;5084596;28;21192;-73
2022/09/24 01:49:32;;;;;;;1999.90;999.90;;;12.70;99.90;;;;;;5092012;28;20484;-74
2022/09/24 01:52:03;;;;;;;1999.90;999.90;;;12.70;99.90;;;;;;5091807;28;20456;-74
2022/09/24 01:54:34;;;;;;;1999.90;999.90;;;12.50;99.90;;;;;;5082511;28;21049;-74
2022/09/24 01:57:11;;;;;;;1999.90;999.90;;;12.50;99.90;;;;;;5090908;28;20456;-73
2022/09/24 01:59:43;;;;;;;1999.90;999.90;;;12.50;99.90;;;;;;5093268;28;20540;-74
2022/09/24 02:02:16;;;;;;;1999.90;999.90;;;12.60;99.90;;;;;;5092911;28;20463;-74
2022/09/24 02:04:47;;;;;;;1999.90;999.90;;;12.50;99.90;;;;;;5082051;28;20556;-74
2022/09/24 02:07:20;;;;;;;1999.90;999.90;;;12.50;99.90;;;;;;5087306;28;20459;-75
2022/09/24 02:09:48;;;;;;;1999.90;999.90;;;12.40;99.90;;;;;;5092682;28;20475;-73
2022/09/24 02:12:18;;;;;;;1999.90;999.90;;;12.30;99.90;;;;;;5090907;28;20956;-74
2022/09/24 02:14:53;;;;;;;1999.90;999.90;;;12.10;99.90;;;;;;5080300;28;20953;-74
2022/09/24 02:17:21;;;;;;;1999.90;999.90;;;12.20;99.90;;;;;;5082898;28;20547;-74
2022/09/24 02:19:49;;;;;;;1999.90;999.90;;;12.20;99.90;;;;;;5091653;28;20519;-74
2022/09/24 02:22:17;;;;;;;1999.90;999.90;;;12.10;99.90;;;;;;5090267;28;20517;-72
2022/09/24 02:24:48;;;;;;;1999.90;999.90;;;12.10;99.90;;;;;;5082834;28;20502;-76
2022/09/24 02:27:15;;;;;;;1999.90;999.90;;;12.00;99.90;;;;;;5085254;28;20956;-75
2022/09/24 02:29:42;;;;;;;1999.90;999.90;;;12.00;99.90;;;;;;5091892;28;20488;-74
2022/09/24 02:32:14;;;;;;;1999.90;999.90;;;12.10;99.90;;;;;;5090307;28;20961;-75
2022/09/24 02:34:45;;;;;;;1999.90;999.90;;;12.10;99.90;;;;;;5081067;28;20458;-79
2022/09/24 02:37:14;;;;;;;1999.90;999.90;;;11.80;99.90;;;;;;5084525;28;20569;-75
2022/09/24 02:39:41;;;;;;;1999.90;999.90;;;11.70;99.90;;;;;;5092404;28;20862;-76
2022/09/24 02:42:10;;;;;;;1999.90;999.90;;;11.70;99.90;;;;;;5090401;28;20480;-75
2022/09/24 02:44:37;;;;;;;1999.90;999.90;;;11.60;99.90;;;;;;5085390;28;20461;-76
2022/09/24 02:47:04;;;;;;;1999.90;999.90;;;11.60;99.90;;;;;;5085101;28;20468;-77
2022/09/24 02:49:32;;;;;;;1999.90;999.90;;;11.60;99.90;;;;;;5086479;28;20918;-73
2022/09/24 02:51:59;;;;;;;1999.90;999.90;;;11.70;99.90;;;;;;5091193;28;20946;-74
2022/09/24 02:54:26;;;;;;;1999.90;999.90;;;11.60;99.90;;;;;;5083966;28;20539;-72
2022/09/24 02:56:53;;;;;;;1999.90;999.90;;;11.60;99.90;;;;;;5086252;28;20460;-78
2022/09/24 02:59:19;;;;;;;1999.90;999.90;;;11.60;99.90;;;;;;5089889;28;20484;-76
2022/09/24 03:01:46;;;;;;;1999.90;999.90;;;11.60;99.90;;;;;;5091896;28;20452;-76
2022/09/24 03:04:14;;;;;;;1999.90;999.90;;;11.60;99.90;;;;;;5090205;28;20452;-74
2022/09/24 03:06:42;;;;;;;1999.90;999.90;;;11.70;99.90;;;;;;5086436;28;20537;-74
2022/09/24 03:09:11;;;;;;;1999.90;999.90;;;11.70;99.90;;;;;;5089661;28;20484;-77
2022/09/24 03:11:38;;;;;;;1999.90;999.90;;;11.60;99.90;;;;;;5091568;28;20468;-75
2022/09/24 03:14:05;;;;;;;1999.90;999.90;;;11.50;99.90;;;;;;5090640;28;20464;-75
2022/09/24 03:16:32;;;;;;;1999.90;999.90;;;11.40;99.90;;;;;;5083833;28;20530;-75
2022/09/24 03:18:59;;;;;;;1999.90;999.90;;;11.40;99.90;;;;;;5089796;28;20557;-71
2022/09/24 03:21:25;;;;;;;1999.90;999.90;;;11.40;99.90;;;;;;5084137;28;20468;-75
2022/09/24 03:23:53;;;;;;;1999.90;999.90;;;11.40;99.90;;;;;;5088381;28;20456;-72
2022/09/24 03:26:20;;;;;;;1999.90;999.90;;;11.50;99.90;;;;;;5089255;28;20531;-75
2022/09/24 03:28:46;;;;;;;1999.90;999.90;;;11.30;99.90;;;;;;5089127;28;20480;-76
2022/09/24 03:31:13;;;;;;;1999.90;999.90;;;11.30;99.90;;;;;;5086680;28;20466;-77
2022/09/24 03:33:41;;;;;;;1999.90;999.90;;;11.30;99.90;;;;;;5089988;28;20524;-76
2022/09/24 03:36:10;;;;;;;1999.90;999.90;;;11.30;99.90;;;;;;5087466;28;20480;-76
2022/09/24 03:38:39;;;;;;;1999.90;999.90;;;11.20;99.90;;;;;;5090902;28;20492;-77
2022/09/24 03:41:08;;;;;;;1999.90;999.90;;;11.20;99.90;;;;;;5088901;28;20465;-77
2022/09/24 03:43:35;;;;;;;1999.90;999.90;;;11.20;99.90;;;;;;5085321;28;20452;-77
2022/09/24 03:46:05;;;;;;;1999.90;999.90;;;11.10;99.90;;;;;;5088925;28;20857;-76
2022/09/24 03:48:34;;;;;;;1999.90;999.90;;;11.10;99.90;;;;;;5089862;28;20537;-74
2022/09/24 03:51:03;;;;;;;1999.90;999.90;;;11.20;99.90;;;;;;5089031;28;20514;-74
2022/09/24 03:53:30;;;;;;;1999.90;999.90;;;11.20;99.90;;;;;;5088799;28;20456;-74
2022/09/24 03:55:58;;;;;;;1999.90;999.90;;;11.30;99.90;;;;;;5083276;28;20965;-77
2022/09/24 03:58:26;;;;;;;1999.90;999.90;;;11.20;99.90;;;;;;5089677;28;20480;-76
2022/09/24 04:00:53;;;;;;;1999.90;999.90;;;11.20;99.90;;;;;;5090483;28;20452;-75
2022/09/24 04:03:20;;;;;;;1999.90;999.90;;;11.20;99.90;;;;;;5088519;28;21038;-75
2022/09/24 04:05:48;;;;;;;1999.90;999.90;;;11.30;99.90;;;;;;5089450;28;20457;-75
2022/09/24 04:08:15;;;;;;;1999.90;999.90;;;11.30;99.90;;;;;;5087188;28;20503;-76
2022/09/24 04:10:41;;;;;;;1999.90;999.90;;;11.20;99.90;;;;;;5090481;28;20894;-75
2022/09/24 04:13:08;;;;;;;1999.90;999.90;;;11.10;99.90;;;;;;5087947;28;20509;-77
2022/09/24 04:15:36;;;;;;;1999.90;999.90;;;11.20;99.90;;;;;;5083210;28;20460;-76
2022/09/24 04:18:03;;;;;;;1999.90;999.90;;;11.30;99.90;;;;;;5087396;28;20472;-76
2022/09/24 04:20:30;;;;;;;1999.90;999.90;;;11.50;99.90;;;;;;5087442;28;20483;-76
2022/09/24 04:22:58;;;;;;;1999.90;999.90;;;11.50;99.90;;;;;;5082480;28;20468;-76
2022/09/24 04:25:26;;;;;;;1999.90;999.90;;;11.60;99.90;;;;;;5087883;28;20547;-77
2022/09/24 04:27:54;;;;;;;1999.90;999.90;;;11.60;99.90;;;;;;5088404;28;20484;-76
2022/09/24 04:30:22;;;;;;;1999.90;999.90;;;11.50;99.90;;;;;;5082776;28;20478;-74
2022/09/24 04:32:50;;;;;;;1999.90;999.90;;;11.40;99.90;;;;;;5089388;28;20460;-76
2022/09/24 04:35:17;;;;;;;1999.90;999.90;;;11.40;99.90;;;;;;5087475;28;20452;-76
2022/09/24 04:37:44;;;;;;;1999.90;999.90;;;11.40;99.90;;;;;;5089679;28;20456;-78
2022/09/24 04:40:11;;;;;;;1999.90;999.90;;;11.30;99.90;;;;;;5089201;28;20495;-77
2022/09/24 04:42:39;;;;;;;1999.90;999.90;;;11.30;99.90;;;;;;5085006;28;20459;-74
2022/09/24 04:45:07;;;;;;;1999.90;999.90;;;11.40;99.90;;;;;;5088178;28;20460;-73
2022/09/24 04:47:33;;;;;;;1999.90;999.90;;;11.60;99.90;;;;;;5089536;28;20465;-74
2022/09/24 04:50:02;;;;;;;1999.90;999.90;;;11.70;99.90;;;;;;5088505;28;20502;-71
2022/09/24 04:52:32;;;;;;;1999.90;999.90;;;11.80;99.90;;;;;;5088265;28;20543;-77
2022/09/24 04:54:58;;;;;;;1999.90;999.90;;;11.80;99.90;;;;;;5089056;28;20460;-75
2022/09/24 04:57:25;;;;;;;1999.90;999.90;;;11.70;99.90;;;;;;5100565;22;21013;-69
2022/09/24 04:59:52;;;;;;;1999.90;999.90;;;11.60;99.90;;;;;;5070261;28;20895;-70
2022/09/24 05:02:19;;;;;;;1999.90;999.90;;;11.60;99.90;;;;;;5067836;28;21167;-67
2022/09/24 05:04:46;;;;;;;1999.90;999.90;;;11.60;99.90;;;;;;5068321;28;20883;-70
2022/09/24 05:07:14;;;;;;;1999.90;999.90;;;11.70;99.90;;;;;;5068210;28;20535;-70
2022/09/24 05:09:40;;;;;;;1999.90;999.90;;;11.80;99.90;;;;;;5063874;28;20458;-70
2022/09/24 05:12:07;;;;;;;1999.90;999.90;;;11.80;99.90;;;;;;5068912;28;20461;-70
2022/09/24 05:14:34;;;;;;;1999.90;999.90;;;12.00;99.90;;;;;;5068853;28;20527;-70
2022/09/24 05:17:00;;;;;;;1999.90;999.90;;;12.10;99.90;;;;;;5068329;28;20465;-68
2022/09/24 05:19:27;;;;;;;1999.90;999.90;;;12.00;99.90;;;;;;5068956;28;20527;-70
2022/09/24 05:21:53;;;;;;;1999.90;999.90;;;12.00;99.90;;;;;;5069813;28;20515;-70
2022/09/24 05:24:22;;;;;;;1999.90;999.90;;;11.90;99.90;;;;;;5062404;28;20499;-69
2022/09/24 05:29:32;;;;;;;1999.90;999.90;;;11.80;99.90;;;;;;5069045;28;20584;-69
2022/09/24 05:32:02;;;;;;;1999.90;999.90;;;11.90;99.90;;;;;;5069030;28;21038;-69
2022/09/24 05:34:29;;;;;;;1999.90;999.90;;;12.00;99.90;;;;;;5068259;28;20838;-70
2022/09/24 05:36:57;;;;;;;1999.90;999.90;;;12.00;99.90;;;;;;5069459;28;20560;-70
2022/09/24 05:39:25;;;;;;;1999.90;999.90;;;12.10;99.90;;;;;;5068026;28;20894;-70
2022/09/24 05:41:51;;;;;;;1999.90;999.90;;;12.10;99.90;;;;;;5069121;28;20519;-70
2022/09/24 05:44:20;;;;;;;1999.90;999.90;;;12.10;99.90;;;;;;5068004;28;22211;-67
2022/09/24 05:46:47;;;;;;;1999.90;999.90;;;12.10;99.90;;;;;;5064254;28;20449;-67
2022/09/24 05:49:13;;;;;;;1999.90;999.90;;;12.20;99.90;;;;;;5067939;28;20507;-70
2022/09/24 05:51:40;;;;;;;1999.90;999.90;;;12.20;99.90;;;;;;5069417;28;20465;-70
2022/09/24 05:54:07;;;;;;;1999.90;999.90;;;12.20;99.90;;;;;;5072296;28;20456;-70
2022/09/24 05:56:35;;;;;;;1999.90;999.90;;;12.20;99.90;;;;;;5067666;28;20461;-70
2022/09/24 05:59:02;;;;;;;1999.90;999.90;;;12.30;99.90;;;;;;5067863;28;20524;-67
2022/09/24 06:01:29;;;;;;;1999.90;999.90;;;12.20;99.90;;;;;;5068996;28;20514;-70
2022/09/24 06:03:56;;;;;;;1999.90;999.90;;;12.30;99.90;;;;;;5069097;28;20468;-70
2022/09/24 06:06:23;;;;;;;1999.90;999.90;;;12.20;99.90;;;;;;5066912;28;20592;-70
2022/09/24 06:08:49;;;;;;;1999.90;999.90;;;12.10;99.90;;;;;;5068631;28;21001;-69
2022/09/24 06:11:17;;;;;;;1999.90;999.90;;;12.10;99.90;;;;;;5068262;28;20523;-69
2022/09/24 06:13:45;;;;;;;1999.90;999.90;;;12.20;99.90;;;;;;5066454;28;20467;-69
2022/09/24 06:16:12;;;;;;;1999.90;999.90;;;12.20;99.90;;;;;;5071825;28;20514;-69
2022/09/24 06:18:40;;;;;;;1999.90;999.90;;;12.50;99.90;;;;;;5072963;28;20473;-70
2022/09/24 06:21:09;;;;;;;1999.90;999.90;;;12.50;99.90;;;;;;5072419;28;20485;-69
2022/09/24 06:23:37;;;;;;;1999.90;999.90;;;12.40;99.90;;;;;;5072566;28;20457;-70
2022/09/24 06:26:06;;;;;;;1999.90;999.90;;;12.30;99.90;;;;;;5071764;28;21014;-69
2022/09/24 06:28:33;;;;;;;1999.90;999.90;;;12.60;99.90;;;;;;5073338;28;20476;-70
2022/09/24 06:31:01;;;;;;;1999.90;999.90;;;12.60;99.90;;;;;;5072621;28;20457;-71
2022/09/24 06:33:29;;;;;;;1999.90;999.90;;;12.70;99.90;;;;;;5071785;28;20468;-69
2022/09/24 06:35:59;;;;;;;1999.90;999.90;;;12.70;99.90;;;;;;5072561;28;20959;-68
2022/09/24 06:38:26;;;;;;;1999.90;999.90;;;12.70;99.90;;;;;;5072097;28;20473;-68
2022/09/24 06:40:53;;;;;;;1999.90;999.90;;;12.60;99.90;;;;;;5072149;28;20538;-69
2022/09/24 06:43:19;;;;;;;1999.90;999.90;;;12.70;99.90;;;;;;5071304;28;20519;-69
2022/09/24 06:45:47;;;;;;;1999.90;999.90;;;12.70;99.90;;;;;;5072232;28;20465;-70
2022/09/24 06:48:16;;;;;;;1999.90;999.90;;;12.70;99.90;;;;;;5070978;28;21001;-70
2022/09/24 06:50:44;;;;;;;1999.90;999.90;;;12.70;99.90;;;;;;5072159;28;20560;-70
2022/09/24 06:53:12;;;;;;;1999.90;999.90;;;12.70;99.90;;;;;;5072340;28;20469;-70
2022/09/24 06:55:39;;;;;;;1999.90;999.90;;;12.80;99.90;;;;;;5071542;28;20539;-69
2022/09/24 06:58:07;;;;;;;1999.90;999.90;;;12.80;99.90;;;;;;5071487;28;20497;-68
2022/09/24 07:00:34;;;;;;;1999.90;999.90;;;12.80;99.90;;;;;;5070773;28;20901;-70
2022/09/24 07:03:01;;;;;;;1999.90;999.90;;;12.80;99.90;;;;;;5069679;28;20518;-70
2022/09/24 07:05:30;;;;;;;1999.90;999.90;;;12.90;99.90;;;;;;5071182;28;20466;-70
2022/09/24 07:07:57;;;;;;;1999.90;999.90;;;13.00;99.90;;;;;;5073810;28;20523;-67
2022/09/24 07:10:24;;;;;;;1999.90;999.90;;;13.10;99.90;;;;;;5071338;28;20461;-70
2022/09/24 07:12:51;;;;;;;1999.90;999.90;;;13.10;99.90;;;;;;5071066;28;20511;-69
2022/09/24 07:15:18;;;;;;;1999.90;999.90;;;13.10;99.90;;;;;;5074759;28;20461;-69
2022/09/24 07:17:44;;;;;;;1999.90;999.90;;;13.40;99.90;;;;;;5070864;28;20477;-67
2022/09/24 07:20:11;;;;;;;1999.90;999.90;;;13.60;99.90;;;;;;5066862;28;20909;-69
2022/09/24 07:22:41;;;;;;;1999.90;999.90;;;13.60;99.90;;;;;;5071387;28;20515;-70
2022/09/24 07:25:09;;;;;;;1999.90;999.90;;;13.60;99.90;;;;;;5070931;28;20461;-70
2022/09/24 07:27:36;;;;;;;1999.90;999.90;;;13.60;99.90;;;;;;5079301;28;21042;-70
2022/09/24 07:30:04;;;;;;;1999.90;999.90;;;13.70;99.90;;;;;;5068891;28;20457;-70
2022/09/24 07:32:31;;;;;;;1999.90;999.90;;;13.70;99.90;;;;;;5068847;28;20453;-70
2022/09/24 07:34:58;;;;;;;1999.90;999.90;;;13.90;99.90;;;;;;5052999;28;20505;-69
2022/09/24 07:37:24;;;;;;;1999.90;999.90;;;13.90;99.90;;;;;;5053930;28;20462;-69
2022/09/24 07:39:52;;;;;;;1999.90;999.90;;;13.90;99.90;;;;;;5073998;28;20507;-73
2022/09/24 07:42:20;;;;;;;1999.90;999.90;;;14.10;99.90;;;;;;5070516;28;20465;-72
2022/09/24 07:44:47;;;;;;;1999.90;999.90;;;14.10;99.90;;;;;;5070405;28;20488;-72
2022/09/24 07:47:15;;;;;;;1999.90;999.90;;;14.10;99.90;;;;;;5062286;28;20492;-68
2022/09/24 07:49:42;;;;;;;1999.90;999.90;;;14.20;99.90;;;;;;5067381;28;20461;-72
2022/09/24 07:52:10;;;;;;;1999.90;999.90;;;14.20;99.90;;;;;;5060402;28;20475;-71
2022/09/24 07:54:37;;;;;;;1999.90;999.90;;;14.20;99.90;;;;;;5073886;28;20889;-72
2022/09/24 07:57:10;;;;;;;1999.90;999.90;;;14.30;99.90;;;;;;5070929;28;20518;-72
2022/09/24 07:59:37;;;;;;;1999.90;999.90;;;14.10;99.90;;;;;;5069968;28;20461;-70
2022/09/24 08:02:07;;;;;;;1999.90;999.90;;;14.10;99.90;;;;;;5068967;28;20523;-70
2022/09/24 08:04:34;;;;;;;1999.90;999.90;;;14.30;99.90;;;;;;5069600;28;20461;-72
2022/09/24 08:07:00;;;;;;;1999.90;999.90;;;14.40;99.90;;;;;;5070162;28;20492;-72
2022/09/24 08:09:27;;;;;;;1999.90;999.90;;;14.60;99.90;;;;;;5069854;28;20524;-72
2022/09/24 08:11:54;;;;;;;1999.90;999.90;;;14.90;99.90;;;;;;5070816;28;20469;-73
2022/09/24 08:14:22;;;;;;;1999.90;999.90;;;15.10;99.90;;;;;;5068857;28;20946;-72
2022/09/24 08:16:49;;;;;;;1999.90;999.90;;;15.30;99.90;;;;;;5067702;28;20457;-70
2022/09/24 08:19:15;;;;;;;1999.90;999.90;;;15.30;99.90;;;;;;5069652;28;20461;-72
2022/09/24 08:21:42;;;;;;;1999.90;999.90;;;15.20;99.90;;;;;;5069701;28;20869;-72
2022/09/24 08:24:09;;;;;;;1999.90;999.90;;;15.20;99.90;;;;;;5070705;28;20883;-72
2022/09/24 08:26:35;;;;;;;1999.90;999.90;;;15.10;99.90;;;;;;5079340;28;21120;-72
2022/09/24 08:29:02;;;;;;;1999.90;999.90;;;15.00;99.90;;;;;;5075209;28;20515;-72
2022/09/24 08:31:30;;;;;;;1999.90;999.90;;;15.30;99.90;;;;;;5069498;28;20511;-72
2022/09/24 08:33:57;;;;;;;1999.90;999.90;;;15.50;99.90;;;;;;5065417;28;20472;-72
2022/09/24 08:36:24;;;;;;;1999.90;999.90;;;15.60;99.90;;;;;;5056121;28;20481;-71
2022/09/24 08:38:53;;;;;;;1999.90;999.90;;;15.90;99.90;;;;;;5060318;28;21010;-72
2022/09/24 08:41:42;;;;;;;1999.90;999.90;;;16.10;99.90;;;;;;5056554;28;20485;-71
2022/09/24 08:47:21;;;;;;;1999.90;999.90;;;16.30;99.90;;;;;;5074465;28;20549;-72
2022/09/24 08:47:21;;;;;;;1999.90;999.90;;;16.70;99.90;;;;;;5066357;28;20485;-72
2022/09/24 08:49:55;;;;;;;1999.90;999.90;;;16.70;99.90;;;;;;5069982;28;20588;-73
2022/09/24 08:52:33;;;;;;;1999.90;999.90;;;16.70;99.90;;;;;;5068881;28;20465;-69
2022/09/24 08:55:04;;;;;;;1999.90;999.90;;;16.80;99.90;;;;;;5066750;28;20953;-69
2022/09/24 08:57:36;;;;;;;1999.90;999.90;;;17.20;99.90;;;;;;5068273;28;20566;-70
2022/09/24 09:00:06;;;;;;;1999.90;999.90;;;17.50;99.90;;;;;;5068822;28;20485;-70
2022/09/24 09:02:43;;;;;;;1999.90;999.90;;;17.80;99.90;;;;;;5068661;28;20473;-70
2022/09/24 09:05:18;;;;;;;1999.90;999.90;;;18.00;99.90;;;;;;5068574;28;20461;-70
2022/09/24 09:07:49;;;;;;;1999.90;999.90;;;18.20;99.90;;;;;;5068333;28;20480;-69
2022/09/24 09:10:25;;;;;;;1999.90;999.90;;;17.70;99.90;;;;;;5070813;28;20452;-71
2022/09/24 09:12:56;;;;;;;1999.90;999.90;;;18.10;99.90;;;;;;5071417;28;20452;-70
2022/09/24 09:15:27;;;;;;;1999.90;999.90;;;18.40;99.90;;;;;;5063231;28;20454;-67
2022/09/24 09:17:59;;;;;;;1999.90;999.90;;;18.80;99.90;;;;;;5066905;28;20477;-70
2022/09/24 09:20:33;;;;;;;1999.90;999.90;;;18.90;99.90;;;;;;5065750;28;20895;-69
2022/09/24 09:23:06;;;;;;;1999.90;999.90;;;18.70;99.90;;;;;;5065327;28;20461;-70
2022/09/24 09:25:35;;;;;;;1999.90;999.90;;;18.50;99.90;;;;;;5068628;28;20458;-70
2022/09/24 09:28:07;;;;;;;1999.90;999.90;;;18.90;99.90;;;;;;5070877;28;20485;-70
2022/09/24 09:30:42;;;;;;;1999.90;999.90;;;19.30;99.90;;;;;;5067633;28;20469;-70
2022/09/24 09:33:26;;;;;;;1999.90;999.90;;;19.60;99.90;;;;;;5068890;28;20964;-71
2022/09/24 09:36:01;;;;;;;1999.90;999.90;;;19.60;99.90;;;;;;5067400;28;21232;-69
2022/09/24 09:38:34;;;;;;;1999.90;999.90;;;19.60;99.90;;;;;;5067105;28;20537;-70
2022/09/24 09:41:11;;;;;;;1999.90;999.90;;;19.30;99.90;;;;;;5067209;28;20465;-70
2022/09/24 09:43:38;;;;;;;1999.90;999.90;;;19.30;99.90;;;;;;5068348;28;20461;-71
2022/09/24 09:46:13;;;;;;;1999.90;999.90;;;19.10;99.90;;;;;;5067906;28;20469;-70
2022/09/24 09:48:46;;;;;;;1999.90;999.90;;;19.20;99.90;;;;;;5071819;28;20480;-70
2022/09/24 09:51:19;;;;;;;1999.90;999.90;;;19.40;99.40;;;;;;5072866;28;20461;-73
2022/09/24 09:53:55;;;;;;;1999.90;999.90;;;19.70;99.50;;;;;;5071571;28;21059;-74
2022/09/24 09:56:25;;;;;;;1999.90;999.90;;;19.70;99.90;;;;;;5072489;28;20461;-73
2022/09/24 09:59:01;;;;;;;1999.90;999.90;;;19.60;97.50;;;;;;5073242;28;20490;-69
2022/09/24 10:01:32;;;;;;;1999.90;999.90;;;19.70;98.40;;;;;;5067547;28;20835;-71
2022/09/24 10:04:03;;;;;;;1999.90;999.90;;;19.90;97.50;;;;;;5068856;28;20876;-71
2022/09/24 10:06:31;;;;;;;1999.90;999.90;;;19.60;97.60;;;;;;5065175;28;20969;-71
2022/09/24 10:09:12;;;;;;;1999.90;999.90;;;19.60;97.60;;;;;;5069338;28;20480;-71
2022/09/24 10:11:39;;;;;;;1999.90;999.90;;;19.60;98.10;;;;;;5070831;28;20809;-71
2022/09/24 10:14:11;;;;;;;1999.90;999.90;;;19.80;97.30;;;;;;5071708;28;20469;-71
2022/09/24 10:16:40;;;;;;;1999.90;999.90;;;19.80;97.60;;;;;;5072206;28;20465;-71
2022/09/24 10:19:17;;;;;;;1999.90;999.90;;;19.70;97.20;;;;;;5070621;28;20477;-71
2022/09/24 10:21:44;;;;;;;1999.90;999.90;;;19.80;97.80;;;;;;5072836;28;20560;-71
2022/09/24 10:24:16;;;;;;;1999.90;999.90;;;20.00;97.80;;;;;;5071545;28;20465;-73
2022/09/24 10:26:44;;;;;;;1999.90;999.90;;;20.30;97.40;;;;;;5072155;28;20465;-73
2022/09/24 10:31:57;;;;;;;1999.90;999.90;;;20.60;97.30;;;;;;5073475;28;20445;-73
2022/09/24 10:34:27;;;;;;;1999.90;999.90;;;21.00;96.90;;;;;;5074152;28;20449;-70
2022/09/24 10:37:00;;;;;;;1999.90;999.90;;;21.30;95.80;;;;;;5081480;28;20877;-72
2022/09/24 10:39:27;;;;;;;1999.90;999.90;;;21.50;95.10;;;;;;5070943;28;20538;-73
2022/09/24 10:41:56;;;;;;;1999.90;999.90;;;21.30;94.70;;;;;;5054436;28;20605;-73
2022/09/24 10:44:24;;;;;;;1999.90;999.90;;;21.30;95.00;;;;;;5053937;28;20545;-72
2022/09/24 10:47:14;;;;;;;1999.90;999.90;;;21.20;95.10;;;;;;5054238;28;20899;-72
2022/09/24 10:50:03;;;;;;;1999.90;999.90;;;21.20;94.50;;;;;;5068086;28;20453;-73
2022/09/24 10:52:52;;;;;;;1999.90;999.90;;;21.00;95.00;;;;;;5054028;28;20492;-73
2022/09/24 10:55:34;;;;;;;1999.90;999.90;;;20.90;94.50;;;;;;5057563;28;20526;-73
2022/09/24 10:58:06;;;;;;;1999.90;999.90;;;20.50;95.70;;;;;;5088895;22;20496;-76
2022/09/24 11:00:39;;;;;;;1999.90;999.90;;;20.50;95.40;;;;;;5089479;28;20464;-77
2022/09/24 11:03:29;;;;;;;1999.90;999.90;;;20.40;94.80;;;;;;5090903;28;20468;-74
2022/09/24 11:06:02;;;;;;;1999.90;999.90;;;20.10;95.50;;;;;;5086870;28;20518;-73
2022/09/24 11:09:07;;;;;;;1999.90;999.90;;;20.00;96.00;;;;;;5090025;28;20567;-76
2022/09/24 11:11:47;;;;;;;1999.90;999.90;;;20.50;95.00;;;;;;5073669;28;20461;-76
2022/09/24 11:14:32;;;;;;;1999.90;999.90;;;20.00;98.10;;;;;;5086625;28;20556;-75
2022/09/24 11:17:21;;;;;;;1999.90;999.90;;;20.10;97.00;;;;;;5087253;28;20874;-75
2022/09/24 11:20:04;;;;;;;1999.90;999.90;;;20.10;97.80;;;;;;5087102;28;20458;-75
2022/09/24 11:22:42;;;;;;;1999.90;999.90;;;19.80;99.50;;;;;;5091746;28;20483;-75
2022/09/24 11:25:23;;;;;;;1999.90;999.90;;;19.60;99.90;;;;;;5093787;28;20445;-74
2022/09/24 11:28:01;;;;;;;1999.90;999.90;;;19.50;99.90;;;;;;5092084;28;20491;-74
2022/09/24 11:30:34;;;;;;;1999.90;999.90;;;19.40;99.90;;;;;;5087357;28;20460;-77
2022/09/24 11:33:17;;;;;;;1999.90;999.90;;;19.40;99.90;;;;;;5086161;28;20516;-75
2022/09/24 11:36:19;;;;;;;1999.90;999.90;;;19.50;99.90;;;;;;5084447;28;20464;-75
2022/09/24 11:39:04;;;;;;;1999.90;999.90;;;19.10;99.90;;;;;;5056911;28;20471;-75
2022/09/24 11:41:44;;;;;;;1999.90;999.90;;;19.10;99.90;;;;;;5082008;28;20469;-75
2022/09/24 11:44:35;;;;;;;1999.90;999.90;;;19.20;99.90;;;;;;5076975;28;20499;-76
2022/09/24 11:47:15;;;;;;;1999.90;999.90;;;18.90;99.90;;;;;;5077435;28;20488;-74
2022/09/24 11:49:53;;;;;;;1999.90;999.90;;;19.00;99.90;;;;;;5084013;28;20477;-76
2022/09/24 11:52:29;;;;;;;1999.90;999.90;;;18.90;99.90;;;;;;5075646;28;20837;-76
2022/09/24 11:55:04;;;;;;;1999.90;999.90;;;18.70;99.90;;;;;;5084377;28;20585;-78
2022/09/24 11:57:34;;;;;;;1999.90;999.90;;;18.50;99.90;;;;;;5086452;28;20470;-77
2022/09/24 12:00:06;;;;;;;1999.90;999.90;;;18.50;99.90;;;;;;5087978;28;20453;-75
2022/09/24 12:02:37;;;;;;;1999.90;999.90;;;18.60;99.90;;;;;;5088659;28;20637;-77
2022/09/24 12:05:07;;;;;;;1999.90;999.90;;;18.70;99.90;;;;;;5084981;28;21036;-77
2022/09/24 12:07:39;;;;;;;1999.90;999.90;;;18.80;99.90;;;;;;5088051;28;20511;-77
2022/09/24 12:10:23;;;;;;;1999.90;999.90;;;18.60;99.90;;;;;;5088493;28;20468;-78
2022/09/24 12:12:53;;;;;;;1999.90;999.90;;;18.60;99.90;;;;;;5080368;28;20535;-75
2022/09/24 12:15:24;;;;;;;1999.90;999.90;;;18.80;99.90;;;;;;5087696;28;20487;-78
2022/09/24 12:17:56;;;;;;;1999.90;999.90;;;18.80;99.90;;;;;;5088435;28;20476;-77
2022/09/24 12:20:27;;;;;;;1999.90;999.90;;;18.70;99.90;;;;;;5086997;28;20543;-77
2022/09/24 12:22:58;;;;;;;1999.90;999.90;;;18.70;99.90;;;;;;5086102;28;20516;-78